Time;durP1;ratioP1;P1;durP2;ratioP2;P2;SDS_P1;SDS_P2;PMS_P1;PMS_P2;Temp;Humidity;BMP_temperature;BMP_pressure;BME280_temperature;BME280_humidity;BME280_pressure;Samples;Min_cycle;Max_cycle;Signal;HPM_P1;HPM_P2
2022/04/04 00:01:07;;;;;;;12.48;8.35;;;;;;;;;;6287603;22;20007;-80
2022/04/04 00:03:33;;;;;;;12.10;8.35;;;;;;;;;;6287275;22;20003;-80
2022/04/04 00:05:59;;;;;;;12.55;8.30;;;;;;;;;;6313792;22;19996;-80
2022/04/04 00:08:25;;;;;;;12.15;6.90;;;;;;;;;;6314500;22;19999;-80
2022/04/04 00:10:51;;;;;;;12.35;7.80;;;;;;;;;;6287020;22;20034;-80
2022/04/04 00:13:17;;;;;;;13.15;7.97;;;;;;;;;;6286072;22;20010;-80
2022/04/04 00:15:44;;;;;;;13.05;8.05;;;;;;;;;;6286772;22;20003;-79
2022/04/04 00:18:10;;;;;;;11.63;7.57;;;;;;;;;;6314532;22;20003;-79
2022/04/04 00:20:37;;;;;;;12.27;7.88;;;;;;;;;;6286341;22;20030;-79
2022/04/04 00:23:03;;;;;;;12.45;7.95;;;;;;;;;;6313723;22;20117;-80
2022/04/04 00:25:30;;;;;;;12.85;8.20;;;;;;;;;;6313114;22;19995;-79
2022/04/04 00:27:56;;;;;;;13.25;8.13;;;;;;;;;;6286197;22;20007;-80
2022/04/04 00:30:22;;;;;;;12.13;8.43;;;;;;;;;;6285499;22;20106;-80
2022/04/04 00:32:48;;;;;;;12.65;8.02;;;;;;;;;;6285581;22;20090;-80
2022/04/04 00:35:14;;;;;;;11.63;8.13;;;;;;;;;;6314371;22;20010;-80
2022/04/04 00:37:40;;;;;;;12.50;8.77;;;;;;;;;;6286266;22;20075;-80
2022/04/04 00:40:07;;;;;;;14.52;8.75;;;;;;;;;;6287355;22;20007;-80
2022/04/04 00:42:34;;;;;;;11.90;7.85;;;;;;;;;;6314273;22;20346;-80
2022/04/04 00:45:00;;;;;;;12.57;8.10;;;;;;;;;;6287601;22;20074;-80
2022/04/04 00:47:26;;;;;;;14.38;8.68;;;;;;;;;;6314697;22;20001;-80
2022/04/04 00:49:52;;;;;;;12.68;8.43;;;;;;;;;;6288195;22;20007;-81
2022/04/04 00:52:19;;;;;;;12.13;7.75;;;;;;;;;;6292964;22;20003;-79
2022/04/04 00:54:48;;;;;;;13.60;8.50;;;;;;;;;;6293609;22;20014;-79
2022/04/04 00:57:14;;;;;;;10.50;7.63;;;;;;;;;;6290164;22;20043;-80
2022/04/04 00:59:40;;;;;;;10.93;7.55;;;;;;;;;;6315690;22;19999;-80
2022/04/04 01:02:06;;;;;;;12.93;8.18;;;;;;;;;;6315181;22;20007;-79
2022/04/04 01:04:33;;;;;;;10.27;7.15;;;;;;;;;;6289252;22;20003;-80
2022/04/04 01:07:00;;;;;;;13.02;7.90;;;;;;;;;;6287585;22;20027;-80
2022/04/04 01:09:26;;;;;;;14.27;8.50;;;;;;;;;;6314756;22;20003;-80
2022/04/04 01:12:06;;;;;;;12.57;7.45;;;;;;;;;;6315321;22;20007;-80
2022/04/04 01:14:33;;;;;;;12.52;7.90;;;;;;;;;;6288152;22;20067;-80
2022/04/04 01:16:59;;;;;;;12.38;8.00;;;;;;;;;;6314701;22;20000;-81
2022/04/04 01:19:25;;;;;;;11.13;6.97;;;;;;;;;;6287271;22;20042;-81
2022/04/04 01:21:53;;;;;;;14.07;8.40;;;;;;;;;;6287756;22;20280;-81
2022/04/04 01:24:19;;;;;;;12.68;8.07;;;;;;;;;;6314906;22;20000;-81
2022/04/04 01:26:48;;;;;;;12.65;7.95;;;;;;;;;;6288688;22;20002;-80
2022/04/04 01:29:15;;;;;;;11.23;8.13;;;;;;;;;;6314771;22;20030;-80
2022/04/04 01:31:41;;;;;;;14.43;8.63;;;;;;;;;;6315292;22;20010;-81
2022/04/04 01:34:07;;;;;;;12.82;7.97;;;;;;;;;;6288942;22;20011;-80
2022/04/04 01:36:33;;;;;;;14.48;8.52;;;;;;;;;;6316248;22;20005;-81
2022/04/04 01:38:59;;;;;;;14.82;9.07;;;;;;;;;;6288495;22;19999;-80
2022/04/04 01:41:25;;;;;;;12.02;8.10;;;;;;;;;;6288385;22;20038;-80
2022/04/04 01:43:52;;;;;;;14.65;8.30;;;;;;;;;;6290225;22;20014;-81
2022/04/04 01:46:24;;;;;;;12.52;7.65;;;;;;;;;;6318014;22;20003;-81
2022/04/04 01:48:50;;;;;;;13.52;8.48;;;;;;;;;;6317578;22;20003;-81
2022/04/04 01:51:17;;;;;;;13.65;8.80;;;;;;;;;;6287987;22;20038;-81
2022/04/04 01:53:43;;;;;;;13.93;8.25;;;;;;;;;;6316153;22;20003;-81
2022/04/04 01:56:10;;;;;;;15.02;8.98;;;;;;;;;;6316175;22;20007;-82
2022/04/04 01:58:36;;;;;;;13.90;8.65;;;;;;;;;;6315913;22;20053;-80
2022/04/04 02:01:04;;;;;;;14.55;7.82;;;;;;;;;;6317654;22;19999;-81
2022/04/04 02:03:33;;;;;;;13.25;8.38;;;;;;;;;;6292814;22;20073;-81
2022/04/04 02:06:02;;;;;;;14.23;8.80;;;;;;;;;;6316566;22;20002;-81
2022/04/04 02:08:29;;;;;;;13.93;8.65;;;;;;;;;;6290332;22;20006;-80
2022/04/04 02:10:55;;;;;;;13.38;8.57;;;;;;;;;;6314759;22;20065;-81
2022/04/04 02:13:25;;;;;;;16.83;9.43;;;;;;;;;;6315991;22;20045;-80
2022/04/04 02:15:56;;;;;;;13.77;8.82;;;;;;;;;;6286378;22;20003;-80
2022/04/04 02:18:22;;;;;;;17.77;10.02;;;;;;;;;;6314446;22;20010;-80
2022/04/04 02:20:48;;;;;;;16.52;9.85;;;;;;;;;;6316216;22;20427;-80
2022/04/04 02:23:18;;;;;;;18.58;11.32;;;;;;;;;;6318009;22;19995;-81
2022/04/04 02:25:47;;;;;;;17.42;10.13;;;;;;;;;;6333585;22;20030;-81
2022/04/04 02:28:14;;;;;;;15.93;10.02;;;;;;;;;;6308827;22;19995;-80
2022/04/04 02:30:40;;;;;;;16.80;10.15;;;;;;;;;;6334276;22;20019;-81
2022/04/04 02:33:06;;;;;;;17.63;11.30;;;;;;;;;;6307584;22;20004;-80
2022/04/04 02:35:33;;;;;;;17.30;10.23;;;;;;;;;;6307423;22;20007;-81
2022/04/04 02:37:59;;;;;;;16.50;10.18;;;;;;;;;;6304824;22;20011;-80
2022/04/04 02:40:25;;;;;;;17.02;10.43;;;;;;;;;;6290825;22;20025;-80
2022/04/04 02:42:51;;;;;;;17.73;10.25;;;;;;;;;;6318200;22;19999;-80
2022/04/04 02:45:17;;;;;;;16.08;11.20;;;;;;;;;;6288950;22;20030;-80
2022/04/04 02:47:43;;;;;;;19.73;10.65;;;;;;;;;;6315139;22;20049;-80
2022/04/04 02:50:10;;;;;;;16.00;10.52;;;;;;;;;;6315967;22;19999;-80
2022/04/04 02:52:36;;;;;;;18.48;11.30;;;;;;;;;;6288230;22;19999;-80
2022/04/04 02:56:28;;;;;;;18.05;11.50;;;;;;;;;;6316475;22;19999;-80
2022/04/04 02:57:49;;;;;;;17.13;10.13;;;;;;;;;;6315283;22;20010;-80
2022/04/04 03:00:17;;;;;;;16.27;10.80;;;;;;;;;;6316129;22;20006;-81
2022/04/04 03:02:43;;;;;;;16.95;10.98;;;;;;;;;;6288641;22;20022;-80
2022/04/04 03:05:09;;;;;;;15.82;9.75;;;;;;;;;;6289951;22;20331;-80
2022/04/04 03:07:35;;;;;;;17.02;10.13;;;;;;;;;;6317167;22;19999;-80
2022/04/04 03:10:02;;;;;;;17.63;9.85;;;;;;;;;;6296873;22;19998;-81
2022/04/04 03:12:28;;;;;;;18.00;11.05;;;;;;;;;;6306888;22;20033;-80
2022/04/04 03:14:55;;;;;;;19.15;10.77;;;;;;;;;;6333001;22;19999;-79
2022/04/04 03:17:21;;;;;;;16.17;10.57;;;;;;;;;;6306330;22;19983;-80
2022/04/04 03:19:47;;;;;;;18.65;11.63;;;;;;;;;;6333395;22;20006;-81
2022/04/04 03:22:13;;;;;;;20.42;11.60;;;;;;;;;;6295461;22;20082;-81
2022/04/04 03:24:39;;;;;;;19.27;12.30;;;;;;;;;;6290289;22;20000;-80
2022/04/04 03:27:05;;;;;;;17.42;10.55;;;;;;;;;;6318554;22;19999;-80
2022/04/04 03:29:31;;;;;;;18.63;10.20;;;;;;;;;;6290385;22;20411;-80
2022/04/04 03:31:58;;;;;;;19.73;11.82;;;;;;;;;;6318531;22;20106;-81
2022/04/04 03:34:25;;;;;;;19.48;10.45;;;;;;;;;;6317362;22;20003;-81
2022/04/04 03:36:51;;;;;;;18.98;11.68;;;;;;;;;;6319618;22;19999;-80
2022/04/04 03:39:18;;;;;;;17.35;10.10;;;;;;;;;;6290546;22;20014;-81
2022/04/04 03:41:45;;;;;;;21.50;11.35;;;;;;;;;;6291273;22;20490;-81
2022/04/04 03:44:12;;;;;;;17.50;11.10;;;;;;;;;;6289782;22;20009;-81
2022/04/04 03:46:38;;;;;;;20.58;11.52;;;;;;;;;;6323043;22;19999;-81
2022/04/04 03:49:05;;;;;;;18.60;11.18;;;;;;;;;;6319603;22;19999;-81
2022/04/04 03:51:31;;;;;;;18.85;11.20;;;;;;;;;;6318221;22;19999;-81
2022/04/04 03:53:57;;;;;;;17.42;11.18;;;;;;;;;;6291054;22;20004;-80
2022/04/04 03:56:23;;;;;;;19.02;11.90;;;;;;;;;;6319116;22;20003;-81
2022/04/04 03:58:50;;;;;;;18.00;11.98;;;;;;;;;;6288876;22;19999;-80
2022/04/04 04:01:16;;;;;;;20.00;11.82;;;;;;;;;;6317481;22;20007;-81
2022/04/04 04:03:42;;;;;;;16.67;10.15;;;;;;;;;;6317803;22;20082;-81
2022/04/04 04:06:11;;;;;;;15.75;9.73;;;;;;;;;;6317926;22;20002;-80
2022/04/04 04:08:43;;;;;;;16.70;9.95;;;;;;;;;;6318233;22;20042;-80
2022/04/04 04:11:09;;;;;;;19.25;11.00;;;;;;;;;;6318989;22;20082;-80
2022/04/04 04:13:36;;;;;;;20.30;10.20;;;;;;;;;;6320135;22;20010;-81
2022/04/04 04:16:02;;;;;;;17.13;11.00;;;;;;;;;;6319763;22;20077;-81
2022/04/04 04:18:29;;;;;;;16.27;10.48;;;;;;;;;;6319528;22;20316;-81
2022/04/04 04:20:55;;;;;;;21.00;11.73;;;;;;;;;;6291124;22;19999;-81
2022/04/04 04:23:21;;;;;;;21.08;11.75;;;;;;;;;;6292750;22;20019;-80
2022/04/04 04:25:48;;;;;;;17.00;10.20;;;;;;;;;;6290477;22;20461;-81
2022/04/04 04:28:14;;;;;;;21.20;11.00;;;;;;;;;;6290891;22;20060;-80
2022/04/04 04:30:41;;;;;;;15.18;9.80;;;;;;;;;;6290268;22;20500;-80
2022/04/04 04:33:07;;;;;;;28.35;12.02;;;;;;;;;;6291330;22;20023;-81
2022/04/04 04:35:33;;;;;;;20.38;11.50;;;;;;;;;;6319422;22;19999;-80
2022/04/04 04:38:00;;;;;;;16.77;10.95;;;;;;;;;;6318083;22;20047;-80
2022/04/04 04:40:26;;;;;;;18.80;9.80;;;;;;;;;;6291439;22;20026;-81
2022/04/04 04:42:53;;;;;;;21.67;11.13;;;;;;;;;;6318065;22;20051;-81
2022/04/04 04:45:19;;;;;;;19.42;10.85;;;;;;;;;;6291945;22;20003;-80
2022/04/04 04:47:45;;;;;;;20.67;11.15;;;;;;;;;;6293505;22;20044;-80
2022/04/04 04:50:13;;;;;;;17.02;9.63;;;;;;;;;;6289450;22;20097;-81
2022/04/04 04:52:40;;;;;;;16.00;9.50;;;;;;;;;;6288658;22;20003;-80
2022/04/04 04:55:06;;;;;;;16.42;10.38;;;;;;;;;;6289566;22;20026;-80
2022/04/04 04:57:32;;;;;;;17.80;9.65;;;;;;;;;;6310708;22;20003;-81
2022/04/04 05:00:02;;;;;;;15.75;9.43;;;;;;;;;;6310941;22;20086;-80
2022/04/04 05:02:28;;;;;;;17.65;10.00;;;;;;;;;;6282475;22;20022;-80
2022/04/04 05:04:54;;;;;;;13.90;8.57;;;;;;;;;;6310173;22;19999;-81
2022/04/04 05:07:20;;;;;;;16.13;9.10;;;;;;;;;;6310072;22;19995;-80
2022/04/04 05:09:46;;;;;;;15.82;9.25;;;;;;;;;;6285137;22;20065;-79
2022/04/04 05:12:12;;;;;;;13.63;8.23;;;;;;;;;;6310541;22;20428;-80
2022/04/04 05:14:40;;;;;;;14.65;8.77;;;;;;;;;;6309755;22;20007;-80
2022/04/04 05:17:06;;;;;;;16.42;8.95;;;;;;;;;;6309739;22;19999;-80
2022/04/04 05:19:32;;;;;;;13.52;8.55;;;;;;;;;;6309802;22;20014;-79
2022/04/04 05:21:58;;;;;;;15.52;8.85;;;;;;;;;;6309884;22;19999;-80
2022/04/04 05:24:25;;;;;;;12.25;8.50;;;;;;;;;;6310344;22;19999;-81
2022/04/04 05:26:51;;;;;;;17.85;9.25;;;;;;;;;;6310664;22;20007;-80
2022/04/04 05:29:17;;;;;;;14.32;8.85;;;;;;;;;;6282511;22;20003;-81
2022/04/04 05:31:44;;;;;;;14.23;8.00;;;;;;;;;;6283217;22;20064;-80
2022/04/04 05:34:10;;;;;;;13.98;8.20;;;;;;;;;;6310043;22;20364;-81
2022/04/04 05:36:36;;;;;;;16.48;9.02;;;;;;;;;;6282703;22;20003;-80
2022/04/04 05:39:03;;;;;;;14.85;8.73;;;;;;;;;;6311636;22;20007;-80
2022/04/04 05:41:29;;;;;;;13.38;8.68;;;;;;;;;;6310141;22;20030;-80
2022/04/04 05:43:56;;;;;;;13.18;8.48;;;;;;;;;;6311473;22;19999;-80
2022/04/04 05:46:22;;;;;;;15.27;8.88;;;;;;;;;;6284486;22;20056;-80
2022/04/04 05:48:48;;;;;;;15.80;7.80;;;;;;;;;;6315925;22;19995;-80
2022/04/04 05:51:16;;;;;;;17.38;8.13;;;;;;;;;;6287930;22;20026;-80
2022/04/04 05:53:43;;;;;;;12.10;7.50;;;;;;;;;;6313567;22;19999;-81
2022/04/04 05:56:09;;;;;;;12.63;8.52;;;;;;;;;;6310544;22;20060;-80
2022/04/04 05:58:36;;;;;;;13.15;8.02;;;;;;;;;;6310979;22;20431;-80
2022/04/04 06:01:02;;;;;;;11.48;7.85;;;;;;;;;;6282341;22;20015;-81
2022/04/04 06:03:28;;;;;;;13.35;7.78;;;;;;;;;;6310727;22;20004;-80
2022/04/04 06:05:54;;;;;;;12.15;7.82;;;;;;;;;;6310241;22;20082;-80
2022/04/04 06:08:20;;;;;;;12.18;8.38;;;;;;;;;;6309319;22;20003;-79
2022/04/04 06:10:47;;;;;;;13.60;7.70;;;;;;;;;;6281637;22;20029;-80
2022/04/04 06:13:13;;;;;;;11.55;7.43;;;;;;;;;;6282472;22;19999;-80
2022/04/04 06:15:40;;;;;;;12.80;7.57;;;;;;;;;;6283622;22;20071;-81
2022/04/04 06:18:06;;;;;;;12.60;7.75;;;;;;;;;;6310185;22;20007;-80
2022/04/04 06:20:35;;;;;;;11.18;7.80;;;;;;;;;;6282430;22;20362;-81
2022/04/04 06:23:01;;;;;;;11.32;7.40;;;;;;;;;;6282624;22;20005;-80
2022/04/04 06:25:27;;;;;;;9.93;6.30;;;;;;;;;;6283114;22;20031;-79
2022/04/04 06:27:53;;;;;;;9.45;6.40;;;;;;;;;;6283690;22;19999;-80
2022/04/04 06:30:21;;;;;;;10.57;6.72;;;;;;;;;;6312429;22;20002;-79
2022/04/04 06:32:47;;;;;;;12.90;7.40;;;;;;;;;;6285259;22;20006;-81
2022/04/04 06:35:14;;;;;;;13.40;6.82;;;;;;;;;;6312251;22;20074;-81
2022/04/04 06:37:40;;;;;;;16.52;7.65;;;;;;;;;;6312588;22;19999;-80
2022/04/04 06:40:07;;;;;;;10.13;6.22;;;;;;;;;;6312131;22;20006;-80
2022/04/04 06:42:40;;;;;;;10.73;6.28;;;;;;;;;;6312236;22;19999;-80
2022/04/04 06:45:06;;;;;;;10.50;6.82;;;;;;;;;;6312523;22;19995;-80
2022/04/04 06:47:33;;;;;;;11.45;7.07;;;;;;;;;;6312562;22;20006;-80
2022/04/04 06:49:59;;;;;;;10.35;6.25;;;;;;;;;;6312026;22;20000;-80
2022/04/04 06:52:26;;;;;;;9.88;5.47;;;;;;;;;;6312546;22;20003;-81
2022/04/04 06:54:53;;;;;;;10.82;6.60;;;;;;;;;;6311717;22;20031;-81
2022/04/04 06:57:20;;;;;;;10.50;6.22;;;;;;;;;;6312261;22;20026;-80
2022/04/04 06:59:46;;;;;;;8.68;4.70;;;;;;;;;;6311301;22;20457;-81
2022/04/04 07:02:12;;;;;;;8.80;5.40;;;;;;;;;;6311847;22;20086;-80
2022/04/04 07:04:38;;;;;;;8.85;5.35;;;;;;;;;;6312269;22;20152;-81
2022/04/04 07:07:05;;;;;;;9.63;5.55;;;;;;;;;;6284877;22;20010;-81
2022/04/04 07:09:31;;;;;;;8.68;6.07;;;;;;;;;;6285678;22;20004;-81
2022/04/04 07:11:57;;;;;;;8.90;4.80;;;;;;;;;;6313857;22;19999;-79
2022/04/04 07:14:24;;;;;;;10.20;5.95;;;;;;;;;;6312005;22;19999;-81
2022/04/04 07:16:52;;;;;;;9.23;5.57;;;;;;;;;;6283870;22;20003;-81
2022/04/04 07:19:20;;;;;;;10.15;5.85;;;;;;;;;;6284914;22;20030;-80
2022/04/04 07:21:46;;;;;;;8.00;5.75;;;;;;;;;;6284228;22;20004;-80
2022/04/04 07:24:12;;;;;;;8.57;5.93;;;;;;;;;;6311107;22;20019;-80
2022/04/04 07:26:38;;;;;;;9.05;5.55;;;;;;;;;;6311336;22;20026;-81
2022/04/04 07:29:04;;;;;;;8.60;5.78;;;;;;;;;;6284455;22;20004;-82
2022/04/04 07:31:30;;;;;;;7.40;5.25;;;;;;;;;;6284609;22;20011;-82
2022/04/04 07:33:56;;;;;;;8.25;5.07;;;;;;;;;;6312938;22;20010;-81
2022/04/04 07:36:22;;;;;;;8.88;5.05;;;;;;;;;;6284964;22;20098;-80
2022/04/04 07:38:48;;;;;;;8.88;5.35;;;;;;;;;;6311390;22;20443;-81
2022/04/04 07:41:14;;;;;;;7.90;4.88;;;;;;;;;;6283796;22;20023;-80
2022/04/04 07:43:40;;;;;;;8.27;5.35;;;;;;;;;;6311354;22;19995;-81
2022/04/04 07:46:06;;;;;;;8.70;5.22;;;;;;;;;;6284398;22;20003;-80
2022/04/04 07:48:32;;;;;;;12.18;6.45;;;;;;;;;;6310841;22;20023;-80
2022/04/04 07:50:59;;;;;;;7.90;4.63;;;;;;;;;;6309400;22;20052;-80
2022/04/04 07:53:25;;;;;;;6.97;4.40;;;;;;;;;;6311545;22;19999;-82
2022/04/04 07:55:52;;;;;;;7.65;5.13;;;;;;;;;;6312013;22;20347;-81
2022/04/04 07:58:18;;;;;;;7.18;4.22;;;;;;;;;;6284166;22;20004;-81
2022/04/04 08:00:44;;;;;;;7.45;4.53;;;;;;;;;;6311547;22;20027;-80
2022/04/04 08:03:10;;;;;;;6.72;4.22;;;;;;;;;;6311302;22;20095;-81
2022/04/04 08:05:36;;;;;;;7.18;4.22;;;;;;;;;;6311194;22;20082;-81
2022/04/04 08:08:03;;;;;;;7.25;4.45;;;;;;;;;;6284001;22;20133;-81
2022/04/04 08:10:29;;;;;;;8.10;4.57;;;;;;;;;;6313476;22;20040;-81
2022/04/04 08:12:55;;;;;;;8.73;4.80;;;;;;;;;;6284788;22;19999;-81
2022/04/04 08:15:21;;;;;;;6.88;3.70;;;;;;;;;;6313803;22;19995;-81
2022/04/04 08:17:47;;;;;;;6.15;3.60;;;;;;;;;;6285582;22;20003;-80
2022/04/04 08:20:13;;;;;;;6.55;3.53;;;;;;;;;;6284389;22;20014;-80
2022/04/04 08:22:41;;;;;;;6.95;3.63;;;;;;;;;;6311149;22;20048;-80
2022/04/04 08:25:08;;;;;;;6.20;3.38;;;;;;;;;;6312533;22;20072;-81
2022/04/04 08:27:35;;;;;;;7.38;3.65;;;;;;;;;;6311824;22;20017;-82
2022/04/04 08:30:04;;;;;;;7.22;3.60;;;;;;;;;;6311891;22;20053;-81
2022/04/04 08:32:30;;;;;;;6.70;3.95;;;;;;;;;;6284105;22;20010;-81
2022/04/04 08:34:56;;;;;;;9.55;4.20;;;;;;;;;;6311521;22;20003;-81
2022/04/04 08:37:22;;;;;;;8.65;4.43;;;;;;;;;;6312297;22;20025;-80
2022/04/04 08:39:49;;;;;;;6.40;3.90;;;;;;;;;;6285785;22;20067;-81
2022/04/04 08:42:16;;;;;;;7.75;3.83;;;;;;;;;;6311507;22;20023;-80
2022/04/04 08:44:43;;;;;;;7.43;3.80;;;;;;;;;;6311403;22;19995;-80
2022/04/04 08:47:09;;;;;;;7.15;3.17;;;;;;;;;;6313340;22;20053;-80
2022/04/04 08:49:35;;;;;;;6.90;4.10;;;;;;;;;;6312864;22;20006;-80
2022/04/04 08:52:02;;;;;;;7.40;4.20;;;;;;;;;;6282618;22;20003;-81
2022/04/04 08:54:28;;;;;;;7.85;4.70;;;;;;;;;;6311341;22;20007;-80
2022/04/04 08:56:54;;;;;;;7.40;4.07;;;;;;;;;;6311093;22;19999;-81
2022/04/04 08:59:20;;;;;;;8.32;4.00;;;;;;;;;;6311210;22;20057;-80
2022/04/04 09:01:46;;;;;;;7.38;5.00;;;;;;;;;;6284049;22;20439;-81
2022/04/04 09:04:13;;;;;;;6.25;3.78;;;;;;;;;;6311753;22;20030;-80
2022/04/04 09:06:53;;;;;;;7.07;3.90;;;;;;;;;;6311548;22;20000;-80
2022/04/04 09:09:22;;;;;;;7.07;4.57;;;;;;;;;;6283731;22;20015;-80
2022/04/04 09:12:07;;;;;;;6.57;3.92;;;;;;;;;;6284229;22;20435;-81
2022/04/04 09:14:48;;;;;;;7.32;4.38;;;;;;;;;;6311995;22;20003;-81
2022/04/04 09:17:15;;;;;;;6.90;4.15;;;;;;;;;;6311612;22;20003;-80
2022/04/04 09:19:41;;;;;;;6.03;3.50;;;;;;;;;;6310192;22;20442;-80
2022/04/04 09:22:08;;;;;;;6.30;3.50;;;;;;;;;;6310262;22;20059;-81
2022/04/04 09:24:50;;;;;;;7.03;4.28;;;;;;;;;;6283442;22;20003;-81
2022/04/04 09:27:18;;;;;;;7.38;4.18;;;;;;;;;;6314167;22;19996;-80
2022/04/04 09:29:45;;;;;;;7.20;3.90;;;;;;;;;;6310897;22;20076;-81
2022/04/04 09:32:14;;;;;;;7.60;3.90;;;;;;;;;;6310696;22;20029;-80
2022/04/04 09:34:49;;;;;;;6.53;4.05;;;;;;;;;;6310162;22;20046;-80
2022/04/04 09:37:16;;;;;;;6.78;4.15;;;;;;;;;;6310441;22;19999;-81
2022/04/04 09:39:42;;;;;;;7.60;4.35;;;;;;;;;;6309191;22;20423;-81
2022/04/04 09:42:16;;;;;;;6.72;4.00;;;;;;;;;;6310184;22;20023;-80
2022/04/04 09:44:42;;;;;;;6.00;3.90;;;;;;;;;;6283008;22;20076;-80
2022/04/04 09:47:08;;;;;;;7.50;4.50;;;;;;;;;;6310644;22;20077;-80
2022/04/04 09:49:39;;;;;;;7.50;3.80;;;;;;;;;;6312874;22;20025;-81
2022/04/04 09:52:05;;;;;;;6.40;4.25;;;;;;;;;;6297918;22;19987;-80
2022/04/04 09:54:31;;;;;;;6.63;4.05;;;;;;;;;;6300706;22;20003;-81
2022/04/04 09:57:11;;;;;;;7.40;4.38;;;;;;;;;;6331308;22;20003;-81
2022/04/04 09:59:38;;;;;;;7.35;4.10;;;;;;;;;;6300223;22;19996;-81
2022/04/04 10:02:05;;;;;;;8.50;4.20;;;;;;;;;;6297407;22;20097;-80
2022/04/04 10:04:34;;;;;;;7.32;4.22;;;;;;;;;;6314139;22;19999;-81
2022/04/04 10:07:05;;;;;;;7.28;4.35;;;;;;;;;;6313637;22;19991;-82
2022/04/04 10:09:32;;;;;;;7.45;4.57;;;;;;;;;;6286906;22;20014;-81
2022/04/04 10:11:58;;;;;;;7.38;4.63;;;;;;;;;;6285142;22;20014;-80
2022/04/04 10:14:25;;;;;;;7.97;4.95;;;;;;;;;;6312865;22;20006;-81
2022/04/04 10:16:54;;;;;;;6.35;4.32;;;;;;;;;;6285928;22;20335;-81
2022/04/04 10:19:21;;;;;;;10.15;5.30;;;;;;;;;;6315675;22;20074;-81
2022/04/04 10:21:47;;;;;;;8.18;4.82;;;;;;;;;;6315506;22;20022;-81
2022/04/04 10:24:14;;;;;;;7.85;5.10;;;;;;;;;;6317683;22;20404;-81
2022/04/04 10:26:41;;;;;;;8.13;4.90;;;;;;;;;;6300965;22;19999;-81
2022/04/04 10:29:12;;;;;;;7.80;4.60;;;;;;;;;;6302946;22;20069;-81
2022/04/04 10:32:05;;;;;;;5.88;3.55;;;;;;;;;;6327528;22;20004;-80
2022/04/04 10:34:42;;;;;;;6.97;4.70;;;;;;;;;;6313314;22;20015;-80
2022/04/04 10:37:09;;;;;;;7.47;4.65;;;;;;;;;;6285496;22;20438;-83
2022/04/04 10:39:35;;;;;;;8.60;4.78;;;;;;;;;;6313238;22;19999;-80
2022/04/04 10:42:03;;;;;;;8.73;5.28;;;;;;;;;;6285775;22;20005;-80
2022/04/04 10:44:49;;;;;;;7.60;5.10;;;;;;;;;;6313217;22;20003;-81
2022/04/04 10:47:24;;;;;;;7.32;4.90;;;;;;;;;;6312497;22;20059;-81
2022/04/04 10:49:51;;;;;;;7.82;5.10;;;;;;;;;;6313383;22;20007;-80
2022/04/04 10:52:20;;;;;;;7.45;4.63;;;;;;;;;;6315781;22;20003;-80
2022/04/04 10:54:46;;;;;;;7.53;4.90;;;;;;;;;;6320226;22;20082;-80
2022/04/04 10:57:16;;;;;;;7.57;5.40;;;;;;;;;;6321828;22;20029;-80
2022/04/04 10:59:46;;;;;;;7.72;5.40;;;;;;;;;;6320130;22;20004;-83
2022/04/04 11:02:20;;;;;;;7.15;4.63;;;;;;;;;;6284599;22;20011;-80
2022/04/04 11:07:38;;;;;;;7.15;5.10;;;;;;;;;;6311985;22;20068;-81
2022/04/04 11:10:06;;;;;;;7.93;4.60;;;;;;;;;;6312608;22;20078;-80
2022/04/04 11:12:58;;;;;;;7.38;4.85;;;;;;;;;;6315359;22;20027;-81
2022/04/04 11:15:44;;;;;;;8.02;4.53;;;;;;;;;;6304510;22;20011;-80
2022/04/04 11:18:10;;;;;;;6.40;3.85;;;;;;;;;;6312587;22;20055;-81
2022/04/04 11:20:43;;;;;;;8.43;4.60;;;;;;;;;;6312192;22;20027;-80
2022/04/04 11:23:11;;;;;;;7.72;4.60;;;;;;;;;;6311834;22;20318;-81
2022/04/04 11:25:38;;;;;;;7.05;4.60;;;;;;;;;;6311596;22;20018;-80
2022/04/04 11:28:05;;;;;;;7.88;4.28;;;;;;;;;;6313399;22;19999;-81
2022/04/04 11:30:31;;;;;;;6.80;4.65;;;;;;;;;;6312732;22;20458;-80
2022/04/04 11:32:59;;;;;;;6.97;4.10;;;;;;;;;;6313664;22;20000;-81
2022/04/04 11:35:27;;;;;;;7.22;4.57;;;;;;;;;;6287157;22;20402;-80
2022/04/04 11:37:58;;;;;;;6.53;3.80;;;;;;;;;;6285079;22;20086;-81
2022/04/04 11:40:29;;;;;;;8.75;4.40;;;;;;;;;;6284339;22;20015;-81
2022/04/04 11:42:56;;;;;;;7.35;4.20;;;;;;;;;;6312214;22;19996;-81
2022/04/04 11:45:23;;;;;;;7.53;3.92;;;;;;;;;;6314243;22;20044;-80
2022/04/04 11:47:57;;;;;;;8.13;4.75;;;;;;;;;;6284456;22;20006;-80
2022/04/04 11:50:25;;;;;;;7.78;3.88;;;;;;;;;;6284689;22;20003;-81
2022/04/04 11:53:01;;;;;;;6.70;4.18;;;;;;;;;;6313474;22;20026;-80
2022/04/04 11:55:27;;;;;;;7.30;4.57;;;;;;;;;;6285080;22;20023;-82
2022/04/04 11:57:58;;;;;;;6.57;4.10;;;;;;;;;;6314911;22;19999;-81
2022/04/04 12:00:25;;;;;;;7.57;4.72;;;;;;;;;;6315598;22;19999;-81
2022/04/04 12:02:51;;;;;;;8.15;4.40;;;;;;;;;;6285475;22;20015;-80
2022/04/04 12:05:22;;;;;;;7.68;4.25;;;;;;;;;;6284229;22;20045;-81
2022/04/04 12:07:49;;;;;;;6.90;4.65;;;;;;;;;;6311973;22;20455;-81
2022/04/04 12:10:23;;;;;;;6.75;4.90;;;;;;;;;;6311783;22;20018;-80
2022/04/04 12:12:56;;;;;;;6.43;4.38;;;;;;;;;;6312430;22;19999;-81
2022/04/04 12:15:29;;;;;;;6.65;4.15;;;;;;;;;;6312005;22;20003;-79
2022/04/04 12:17:55;;;;;;;6.38;4.13;;;;;;;;;;6312105;22;19995;-81
2022/04/04 12:20:22;;;;;;;8.15;4.60;;;;;;;;;;6311787;22;19999;-81
2022/04/04 12:25:33;;;;;;;7.13;4.18;;;;;;;;;;6314428;22;20343;-79
2022/04/04 12:27:59;;;;;;;7.80;4.40;;;;;;;;;;6312644;22;20043;-82
2022/04/04 12:30:30;;;;;;;6.43;4.53;;;;;;;;;;6311855;22;20042;-81
2022/04/04 12:33:06;;;;;;;6.45;4.43;;;;;;;;;;6311950;22;20003;-80
2022/04/04 12:35:32;;;;;;;7.75;4.60;;;;;;;;;;6283955;22;20030;-80
2022/04/04 12:37:59;;;;;;;5.50;3.50;;;;;;;;;;6284741;22;20007;-80
2022/04/04 12:40:28;;;;;;;6.57;4.35;;;;;;;;;;6312600;22;20431;-81
2022/04/04 12:43:05;;;;;;;7.45;4.50;;;;;;;;;;6312652;22;20007;-79
2022/04/04 12:45:31;;;;;;;7.78;4.57;;;;;;;;;;6312426;22;19999;-81
2022/04/04 12:48:04;;;;;;;7.03;4.20;;;;;;;;;;6285394;22;20060;-82
2022/04/04 12:50:37;;;;;;;7.78;4.28;;;;;;;;;;6285347;22;20019;-81
2022/04/04 12:53:04;;;;;;;6.10;3.85;;;;;;;;;;6285411;22;20023;-80
2022/04/04 12:55:30;;;;;;;7.72;4.65;;;;;;;;;;6312305;22;20326;-81
2022/04/04 12:57:56;;;;;;;6.88;4.30;;;;;;;;;;6312083;22;19999;-82
2022/04/04 13:00:27;;;;;;;6.03;4.30;;;;;;;;;;6310820;22;20003;-81
2022/04/04 13:02:53;;;;;;;6.55;4.22;;;;;;;;;;6283519;22;20027;-81
2022/04/04 13:05:19;;;;;;;6.80;4.68;;;;;;;;;;6283793;22;20383;-84
2022/04/04 13:07:48;;;;;;;9.60;4.43;;;;;;;;;;6311596;22;19992;-81
2022/04/04 13:10:15;;;;;;;7.13;4.30;;;;;;;;;;6283086;22;20006;-82
2022/04/04 13:12:41;;;;;;;6.53;3.95;;;;;;;;;;6312379;22;20003;-82
2022/04/04 13:15:08;;;;;;;6.28;3.90;;;;;;;;;;6283233;22;20203;-81
2022/04/04 13:17:40;;;;;;;6.53;4.40;;;;;;;;;;6283834;22;20052;-82
2022/04/04 13:20:09;;;;;;;;;;;;;;;;;;6284000;22;20014;-81
2022/04/04 13:22:36;;;;;;;6.97;4.28;;;;;;;;;;6311535;22;19926;-81
2022/04/04 13:25:02;;;;;;;7.57;3.85;;;;;;;;;;6310471;22;19999;-82
2022/04/04 13:27:28;;;;;;;6.57;4.03;;;;;;;;;;6310358;22;20007;-81
2022/04/04 13:29:54;;;;;;;7.13;4.43;;;;;;;;;;6282945;22;20004;-81
2022/04/04 13:32:20;;;;;;;9.73;4.72;;;;;;;;;;6314296;22;19999;-81
2022/04/04 13:34:46;;;;;;;6.88;4.40;;;;;;;;;;6313653;22;20335;-80
2022/04/04 13:37:13;;;;;;;7.70;4.32;;;;;;;;;;6311613;22;20004;-80
2022/04/04 13:39:39;;;;;;;7.00;4.60;;;;;;;;;;6284842;22;20000;-80
2022/04/04 13:42:07;;;;;;;7.40;4.70;;;;;;;;;;6311773;22;20058;-80
2022/04/04 13:44:36;;;;;;;7.32;5.05;;;;;;;;;;6311323;22;20042;-81
2022/04/04 13:47:02;;;;;;;8.48;4.78;;;;;;;;;;6284303;22;19999;-81
2022/04/04 13:49:29;;;;;;;6.63;4.28;;;;;;;;;;6311776;22;20006;-80
2022/04/04 13:51:56;;;;;;;8.00;4.70;;;;;;;;;;6285022;22;20010;-79
2022/04/04 13:54:22;;;;;;;6.40;4.68;;;;;;;;;;6283906;22;20011;-81
2022/04/04 13:56:48;;;;;;;7.32;4.75;;;;;;;;;;6312463;22;20003;-81
2022/04/04 13:59:14;;;;;;;6.85;4.30;;;;;;;;;;6283494;22;20035;-81
2022/04/04 14:01:40;;;;;;;7.13;4.40;;;;;;;;;;6284093;22;20019;-81
2022/04/04 14:04:06;;;;;;;6.85;4.30;;;;;;;;;;6285039;22;20006;-81
2022/04/04 14:06:32;;;;;;;6.82;4.70;;;;;;;;;;6312834;22;19999;-83
2022/04/04 14:08:58;;;;;;;6.95;4.95;;;;;;;;;;6312954;22;20007;-82
2022/04/04 14:11:28;;;;;;;5.95;3.92;;;;;;;;;;6284932;22;20385;-81
2022/04/04 14:13:54;;;;;;;7.45;4.50;;;;;;;;;;6285074;22;20008;-81
2022/04/04 14:16:20;;;;;;;6.15;3.97;;;;;;;;;;6312581;22;20003;-80
2022/04/04 14:18:47;;;;;;;7.82;5.50;;;;;;;;;;6311917;22;19999;-81
2022/04/04 14:21:16;;;;;;;8.07;4.90;;;;;;;;;;6310310;22;20003;-80
2022/04/04 14:23:43;;;;;;;7.22;4.80;;;;;;;;;;6312191;22;20072;-80
2022/04/04 14:26:13;;;;;;;7.53;5.30;;;;;;;;;;6284134;22;20027;-81
2022/04/04 14:28:40;;;;;;;8.43;5.10;;;;;;;;;;6311153;22;20447;-81
2022/04/04 14:31:06;;;;;;;8.75;4.80;;;;;;;;;;6283634;22;20003;-81
2022/04/04 14:33:33;;;;;;;7.35;5.00;;;;;;;;;;6312167;22;20496;-83
2022/04/04 14:36:00;;;;;;;8.82;5.75;;;;;;;;;;6284565;22;20011;-82
2022/04/04 14:38:27;;;;;;;9.02;5.53;;;;;;;;;;6312554;22;20053;-79
2022/04/04 14:40:53;;;;;;;7.15;4.93;;;;;;;;;;6283694;22;20029;-81
2022/04/04 14:43:20;;;;;;;6.90;4.60;;;;;;;;;;6310992;22;20573;-80